Aviation Digital Data Service (ADDS)

Output produced by METARs form (1329 UTC 26 May 2018)
found at http://www.aviationweather.gov/adds/metars/
 
TGPY 261000Z 2612/2712 10012KT 9999 SCT018 SCT038